Time;durP1;ratioP1;P1;durP2;ratioP2;P2;SDS_P1;SDS_P2;PMS_P1;PMS_P2;Temp;Humidity;BMP_temperature;BMP_pressure;BME280_temperature;BME280_humidity;BME280_pressure;Samples;Min_cycle;Max_cycle;Signal;HPM_P1;HPM_P2
2023/04/06 00:00:43;;;;;;;;;;;2.90;99.90;;;;;;6191255;23;19920;-87
2023/04/06 00:03:09;;;;;;;;;;;2.90;99.90;;;;;;6189826;23;19924;-86
2023/04/06 00:05:34;;;;;;;;;;;2.90;99.90;;;;;;6190211;23;19920;-87
2023/04/06 00:08:00;;;;;;;;;;;2.90;99.90;;;;;;6190324;23;19955;-87
2023/04/06 00:10:26;;;;;;;;;;;2.90;99.90;;;;;;6189897;23;19920;-87
2023/04/06 00:12:52;;;;;;;;;;;2.90;99.90;;;;;;6189996;23;19995;-86
2023/04/06 00:15:17;;;;;;;;;;;2.90;99.90;;;;;;6191145;23;19990;-86
2023/04/06 00:17:43;;;;;;;;;;;2.90;99.90;;;;;;6166421;23;19927;-87
2023/04/06 00:20:09;;;;;;;;;;;2.80;99.90;;;;;;6165344;23;19924;-87
2023/04/06 00:22:35;;;;;;;;;;;2.80;99.90;;;;;;6165114;23;19930;-87
2023/04/06 00:25:01;;;;;;;;;;;2.80;99.90;;;;;;6165204;23;19946;-87
2023/04/06 00:27:26;;;;;;;;;;;2.80;99.90;;;;;;6165309;23;19920;-87
2023/04/06 00:29:52;;;;;;;;;;;2.70;99.90;;;;;;6165369;23;19920;-87
2023/04/06 00:32:18;;;;;;;;;;;2.70;99.90;;;;;;6165473;23;20361;-87
2023/04/06 00:34:43;;;;;;;;;;;2.70;99.90;;;;;;6165160;23;19919;-87
2023/04/06 00:37:10;;;;;;;;;;;2.70;99.90;;;;;;6165996;23;20318;-87
2023/04/06 00:39:37;;;;;;;;;;;2.60;99.90;;;;;;6165658;23;20436;-87
2023/04/06 00:42:09;;;;;;;;;;;2.60;99.90;;;;;;6189687;23;19920;-87
2023/04/06 00:44:35;;;;;;;;;;;2.60;99.90;;;;;;6190398;23;19926;-87
2023/04/06 00:47:00;;;;;;;;;;;2.60;99.90;;;;;;6190168;23;19999;-87
2023/04/06 00:49:26;;;;;;;;;;;2.50;99.90;;;;;;6189913;23;19970;-87
2023/04/06 00:51:52;;;;;;;;;;;2.50;99.90;;;;;;6165426;23;19963;-87
2023/04/06 00:54:18;;;;;;;;;;;2.50;99.90;;;;;;6190158;23;19942;-86
2023/04/06 00:56:44;;;;;;;;;;;2.50;99.90;;;;;;6166254;23;19998;-87
2023/04/06 00:59:10;;;;;;;;;;;2.40;99.90;;;;;;6165009;23;19966;-87
2023/04/06 01:01:36;;;;;;;;;;;2.40;99.90;;;;;;6165292;23;19971;-87
2023/04/06 01:04:02;;;;;;;;;;;2.40;99.90;;;;;;6141161;23;19924;-87
2023/04/06 01:06:28;;;;;;;;;;;2.30;99.90;;;;;;6165447;23;19920;-87
2023/04/06 01:08:54;;;;;;;;;;;2.30;99.90;;;;;;6189943;23;20354;-87
2023/04/06 01:11:19;;;;;;;;;;;2.30;99.90;;;;;;6189379;23;20303;-86
2023/04/06 01:13:46;;;;;;;;;;;2.30;99.90;;;;;;6190081;23;19949;-87
2023/04/06 01:16:11;;;;;;;;;;;2.20;99.90;;;;;;6165337;23;20242;-86
2023/04/06 01:18:37;;;;;;;;;;;2.20;99.90;;;;;;6165268;23;19920;-87
2023/04/06 01:21:03;;;;;;;;;;;2.20;99.90;;;;;;6190120;23;19919;-87
2023/04/06 01:23:28;;;;;;;;;;;2.20;99.90;;;;;;6190528;23;19951;-88
2023/04/06 01:25:54;;;;;;;;;;;1.90;99.90;;;;;;6189593;23;19959;-87
2023/04/06 01:28:20;;;;;;;;;;;2.10;99.90;;;;;;6164986;23;19971;-86
2023/04/06 01:30:46;;;;;;;;;;;2.10;99.90;;;;;;6189688;23;19962;-86
2023/04/06 01:33:11;;;;;;;;;;;2.20;99.90;;;;;;6189246;23;19927;-87
2023/04/06 01:35:37;;;;;;;;;;;2.10;99.90;;;;;;6164691;23;20007;-87
2023/04/06 01:38:03;;;;;;;;;;;2.10;99.90;;;;;;6189586;23;19920;-87
2023/04/06 01:40:28;;;;;;;;;;;2.10;99.90;;;;;;6164990;23;20315;-87
2023/04/06 01:42:54;;;;;;;;;;;2.00;99.90;;;;;;6189796;23;20002;-87
2023/04/06 01:45:19;;;;;;;;;;;2.00;99.90;;;;;;6189646;23;19920;-87
2023/04/06 01:47:45;;;;;;;;;;;2.00;99.90;;;;;;6189587;23;19946;-87
2023/04/06 01:50:11;;;;;;;;;;;2.00;99.90;;;;;;6190519;23;20234;-87
2023/04/06 01:52:37;;;;;;;;;;;2.50;99.90;;;;;;6189896;23;20250;-87
2023/04/06 01:55:03;;;;;;;;;;;2.00;99.90;;;;;;6189559;23;20327;-87
2023/04/06 01:57:28;;;;;;;;;;;1.90;99.90;;;;;;6189643;23;19920;-87
2023/04/06 01:59:54;;;;;;;;;;;1.90;99.90;;;;;;6189551;23;20249;-87
2023/04/06 02:02:20;;;;;;;;;;;1.90;99.90;;;;;;6189825;23;19943;-87
2023/04/06 02:04:45;;;;;;;;;;;1.90;99.90;;;;;;6189550;23;19958;-87
2023/04/06 02:07:11;;;;;;;;;;;1.80;99.90;;;;;;6189774;23;19920;-86
2023/04/06 02:09:36;;;;;;;;;;;1.80;99.90;;;;;;6164996;23;19920;-87
2023/04/06 02:12:02;;;;;;;;;;;1.80;99.90;;;;;;6189909;23;20207;-86
2023/04/06 02:14:28;;;;;;;;;;;1.80;99.90;;;;;;6189400;23;20010;-86
2023/04/06 02:16:54;;;;;;;;;;;1.80;99.90;;;;;;6189449;23;19927;-86
2023/04/06 02:19:19;;;;;;;;;;;1.70;99.90;;;;;;6188985;23;19930;-87
2023/04/06 02:21:45;;;;;;;;;;;1.70;99.90;;;;;;6189366;23;19927;-87
2023/04/06 02:24:10;;;;;;;;;;;1.70;99.90;;;;;;6164598;23;20231;-86
2023/04/06 02:26:36;;;;;;;;;;;1.70;99.90;;;;;;6140223;23;19927;-87
2023/04/06 02:29:02;;;;;;;;;;;1.70;99.90;;;;;;6189319;23;19974;-86
2023/04/06 02:31:27;;;;;;;;;;;1.60;99.90;;;;;;6164908;23;19999;-87
2023/04/06 02:33:53;;;;;;;;;;;1.60;99.90;;;;;;6190311;23;19920;-86
2023/04/06 02:36:19;;;;;;;;;;;1.60;99.90;;;;;;6189072;23;20050;-86
2023/04/06 02:38:45;;;;;;;;;;;1.60;99.90;;;;;;6164044;23;19920;-86
2023/04/06 02:41:10;;;;;;;;;;;1.60;99.90;;;;;;6189477;23;20296;-87
2023/04/06 02:43:36;;;;;;;;;;;1.50;99.90;;;;;;6189752;23;19920;-87
2023/04/06 02:46:01;;;;;;;;;;;1.60;99.90;;;;;;6166756;23;19920;-87
2023/04/06 02:48:27;;;;;;;;;;;1.50;99.90;;;;;;6167527;23;19920;-86
2023/04/06 02:50:53;;;;;;;;;;;1.50;99.90;;;;;;6191384;23;19947;-86
2023/04/06 02:53:18;;;;;;;;;;;1.50;99.90;;;;;;6165973;23;20326;-86
2023/04/06 02:55:44;;;;;;;;;;;1.50;99.90;;;;;;6191082;23;19920;-86
2023/04/06 02:58:09;;;;;;;;;;;1.50;99.90;;;;;;6167129;23;20214;-86
2023/04/06 03:00:36;;;;;;;;;;;1.40;99.90;;;;;;6166261;23;20010;-86
2023/04/06 03:03:02;;;;;;;;;;;1.40;99.90;;;;;;6190638;23;19920;-86
2023/04/06 03:05:27;;;;;;;;;;;1.30;99.90;;;;;;6191222;23;19987;-86
2023/04/06 03:07:53;;;;;;;;;;;1.30;99.90;;;;;;6191057;23;20307;-86
2023/04/06 03:10:19;;;;;;;;;;;1.30;99.90;;;;;;6160512;23;19939;-86
2023/04/06 03:12:44;;;;;;;;;;;1.20;99.90;;;;;;6161317;23;19964;-86
2023/04/06 03:15:11;;;;;;;;;;;1.20;99.90;;;;;;6161254;23;19996;-86
2023/04/06 03:17:36;;;;;;;;;;;1.20;99.90;;;;;;6137163;23;19928;-86
2023/04/06 03:20:02;;;;;;;;;;;1.10;99.90;;;;;;6161848;23;19920;-86
2023/04/06 03:22:28;;;;;;;;;;;1.10;99.90;;;;;;6161284;23;19920;-87
2023/04/06 03:24:54;;;;;;;;;;;1.00;99.90;;;;;;6161283;23;20007;-86
2023/04/06 03:27:20;;;;;;;;;;;1.60;99.90;;;;;;6160500;23;20313;-86
2023/04/06 03:29:45;;;;;;;;;;;1.00;99.90;;;;;;6160972;23;19979;-86
2023/04/06 03:32:11;;;;;;;;;;;0.90;99.90;;;;;;6161206;23;19921;-86
2023/04/06 03:34:37;;;;;;;;;;;0.90;99.90;;;;;;6161083;23;19931;-86
2023/04/06 03:37:03;;;;;;;;;;;0.90;99.90;;;;;;6186035;23;20220;-86
2023/04/06 03:39:28;;;;;;;;;;;1.00;99.90;;;;;;6185478;23;19924;-86
2023/04/06 03:41:54;;;;;;;;;;;0.90;99.90;;;;;;6185843;23;19920;-86
2023/04/06 03:44:20;;;;;;;;;;;0.90;99.90;;;;;;6186552;23;19959;-86
2023/04/06 03:46:45;;;;;;;;;;;0.90;99.90;;;;;;6186626;23;19927;-86
2023/04/06 03:49:11;;;;;;;;;;;1.00;99.90;;;;;;6160677;23;20216;-86
2023/04/06 03:51:36;;;;;;;;;;;0.80;99.90;;;;;;6160803;23;19920;-86
2023/04/06 03:54:02;;;;;;;;;;;0.80;99.90;;;;;;6185659;23;19943;-87
2023/04/06 03:56:28;;;;;;;;;;;1.10;99.90;;;;;;6135717;23;19970;-86
2023/04/06 03:58:53;;;;;;;;;;;0.80;99.90;;;;;;6185603;23;19927;-86
2023/04/06 04:01:19;;;;;;;;;;;0.80;99.90;;;;;;6185582;23;19946;-87
2023/04/06 04:03:44;;;;;;;;;;;0.70;99.90;;;;;;6186203;23;19926;-87
2023/04/06 04:06:10;;;;;;;;;;;0.70;99.90;;;;;;6136177;23;19926;-86
2023/04/06 04:08:36;;;;;;;;;;;0.70;99.90;;;;;;6161377;23;20006;-86
2023/04/06 04:11:01;;;;;;;;;;;0.60;99.90;;;;;;6185411;23;20215;-86
2023/04/06 04:13:27;;;;;;;;;;;0.60;99.90;;;;;;6160796;23;19959;-86
2023/04/06 04:15:52;;;;;;;;;;;0.60;99.90;;;;;;6185419;23;19921;-86
2023/04/06 04:18:18;;;;;;;;;;;0.90;99.90;;;;;;6185682;23;19967;-86
2023/04/06 04:20:44;;;;;;;;;;;0.60;99.90;;;;;;6160571;23;20192;-86
2023/04/06 04:23:10;;;;;;;;;;;0.60;99.90;;;;;;6185559;23;19920;-87
2023/04/06 04:25:36;;;;;;;;;;;0.70;99.90;;;;;;6185291;23;20302;-86
2023/04/06 04:28:02;;;;;;;;;;;0.60;99.90;;;;;;6136075;23;20272;-86
2023/04/06 04:30:27;;;;;;;;;;;1.00;99.90;;;;;;6186169;23;19927;-86
2023/04/06 04:32:53;;;;;;;;;;;0.60;99.90;;;;;;6186223;23;19924;-86
2023/04/06 04:35:18;;;;;;;;;;;0.80;99.90;;;;;;6185122;23;19931;-86
2023/04/06 04:37:44;;;;;;;;;;;0.90;99.90;;;;;;6160312;23;19928;-86
2023/04/06 04:40:10;;;;;;;;;;;1.70;99.90;;;;;;6184990;23;20242;-86
2023/04/06 04:42:36;;;;;;;;;;;0.50;99.90;;;;;;6160228;23;19978;-87
2023/04/06 04:45:01;;;;;;;;;;;0.70;99.90;;;;;;6185245;23;19920;-87
2023/04/06 04:47:27;;;;;;;;;;;0.50;99.90;;;;;;6185256;23;19920;-86
2023/04/06 04:49:52;;;;;;;;;;;2.90;99.90;;;;;;6184786;23;19928;-87
2023/04/06 04:52:18;;;;;;;;;;;0.50;99.90;;;;;;6160668;23;19921;-86
2023/04/06 04:54:44;;;;;;;;;;;0.40;99.90;;;;;;6185174;23;20246;-86
2023/04/06 04:57:09;;;;;;;;;;;0.40;99.90;;;;;;6185281;23;19924;-86
2023/04/06 04:59:35;;;;;;;;;;;0.40;99.90;;;;;;6161073;23;19921;-87
2023/04/06 05:02:01;;;;;;;;;;;0.40;99.90;;;;;;6135523;23;19920;-86
2023/04/06 05:04:26;;;;;;;;;;;0.60;99.90;;;;;;6160394;23;19921;-86
2023/04/06 05:07:05;;;;;;;;;;;0.80;99.90;;;;;;6184819;23;19921;-87
2023/04/06 05:09:33;;;;;;;;;;;0.40;99.90;;;;;;6184711;23;19939;-87
2023/04/06 05:12:00;;;;;;;;;;;0.40;99.90;;;;;;6184643;23;19959;-86
2023/04/06 05:14:26;;;;;;;;;;;0.40;99.90;;;;;;6185718;23;20204;-86
2023/04/06 05:16:51;;;;;;;;;;;0.80;99.90;;;;;;6184828;23;20015;-86
2023/04/06 05:19:17;;;;;;;;;;;0.40;99.90;;;;;;6185424;23;19999;-86
2023/04/06 05:21:43;;;;;;;;;;;0.40;99.90;;;;;;6184861;23;19996;-86
2023/04/06 05:24:08;;;;;;;;;;;0.40;99.90;;;;;;6159550;23;20302;-86
2023/04/06 05:26:34;;;;;;;;;;;0.50;99.90;;;;;;6184717;23;19920;-86
2023/04/06 05:29:00;;;;;;;;;;;0.50;99.90;;;;;;6185066;23;19924;-86
2023/04/06 05:31:26;;;;;;;;;;;0.50;99.90;;;;;;6160178;23;19955;-86
2023/04/06 05:33:51;;;;;;;;;;;0.50;99.90;;;;;;6184544;23;19920;-86
2023/04/06 05:36:17;;;;;;;;;;;0.50;99.90;;;;;;6159952;23;20247;-86
2023/04/06 05:38:42;;;;;;;;;;;1.00;99.90;;;;;;6184594;23;19924;-86
2023/04/06 05:41:08;;;;;;;;;;;0.60;99.90;;;;;;6160109;23;19927;-85
2023/04/06 05:43:36;;;;;;;;;;;0.70;99.90;;;;;;6184539;23;19935;-87
2023/04/06 05:46:02;;;;;;;;;;;0.70;99.90;;;;;;6159716;23;19970;-86
2023/04/06 05:48:30;;;;;;;;;;;0.70;99.90;;;;;;6184684;23;19994;-86
2023/04/06 05:50:56;;;;;;;;;;;0.80;99.90;;;;;;6159615;23;19955;-87
2023/04/06 05:53:26;;;;;;;;;;;0.80;99.90;;;;;;6184911;23;19972;-87
2023/04/06 05:55:51;;;;;;;;;;;0.80;99.90;;;;;;6135717;23;19927;-86
2023/04/06 05:58:17;;;;;;;;;;;0.90;99.90;;;;;;6135367;23;19920;-86
2023/04/06 06:00:43;;;;;;;;;;;1.00;99.90;;;;;;6184802;23;20007;-85
2023/04/06 06:03:09;;;;;;;;;;;1.00;99.90;;;;;;6184598;23;19920;-86
2023/04/06 06:05:35;;;;;;;;;;;1.10;99.90;;;;;;6184704;23;19924;-86
2023/04/06 06:08:01;;;;;;;;;;;1.10;99.90;;;;;;6184641;23;19979;-88
2023/04/06 06:10:27;;;;;;;;;;;1.40;99.90;;;;;;6188563;23;19927;-86
2023/04/06 06:12:53;;;;;;;;;;;1.30;99.90;;;;;;6188448;23;19920;-85
2023/04/06 06:15:19;;;;;;;;;;;1.40;99.90;;;;;;6188983;23;19989;-87
2023/04/06 06:17:44;;;;;;;;;;;1.50;99.90;;;;;;6189343;23;19978;-87
2023/04/06 06:20:10;;;;;;;;;;;-0.30;99.90;;;;;;6190505;23;19981;-85
2023/04/06 06:22:36;;;;;;;;;;;1.70;99.90;;;;;;6165903;23;19920;-87
2023/04/06 06:25:02;;;;;;;;;;;1.80;99.90;;;;;;6191830;23;19919;-86
2023/04/06 06:27:27;;;;;;;;;;;1.90;99.90;;;;;;6190365;23;19920;-87
2023/04/06 06:29:53;;;;;;;;;;;1.90;99.90;;;;;;6190816;23;19962;-86
2023/04/06 06:32:19;;;;;;;;;;;2.00;99.90;;;;;;6191210;23;19974;-86
2023/04/06 06:34:44;;;;;;;;;;;4.00;99.90;;;;;;6191198;23;19920;-87
2023/04/06 06:37:10;;;;;;;;;;;2.20;99.90;;;;;;6192122;23;20214;-86
2023/04/06 06:39:35;;;;;;;;;;;2.30;99.90;;;;;;6190794;23;20002;-86
2023/04/06 06:42:01;;;;;;;;;;;2.30;99.90;;;;;;6166104;23;19920;-86
2023/04/06 06:44:42;;;;;;;;;;;2.40;99.90;;;;;;6189254;23;19908;-93
2023/04/06 06:47:08;;;;;;;;;;;1.90;99.90;;;;;;6194707;23;19927;-87
2023/04/06 06:49:33;;;;;;;;;;;2.50;99.90;;;;;;6166761;23;19919;-87
2023/04/06 06:51:59;;;;;;;;;;;2.60;99.90;;;;;;6166260;23;19954;-87
2023/04/06 06:54:25;;;;;;;;;;;2.60;99.90;;;;;;6166427;23;20311;-87
2023/04/06 06:56:50;;;;;;;;;;;2.70;99.90;;;;;;6190918;23;20291;-88
2023/04/06 06:59:16;;;;;;;;;;;3.70;99.90;;;;;;6165963;23;19920;-87
2023/04/06 07:01:42;;;;;;;;;;;2.90;99.90;;;;;;6190892;23;19962;-88
2023/04/06 07:04:08;;;;;;;;;;;2.90;99.90;;;;;;6165217;23;19926;-86
2023/04/06 07:06:37;;;;;;;;;;;3.00;99.90;;;;;;6190578;23;19931;-88
2023/04/06 07:09:05;;;;;;;;;;;3.10;99.90;;;;;;6165767;23;19935;-88
2023/04/06 07:11:31;;;;;;;;;;;3.20;99.90;;;;;;6190553;23;20242;-87
2023/04/06 07:13:56;;;;;;;;;;;3.20;99.90;;;;;;6191431;23;19920;-88
2023/04/06 07:16:22;;;;;;;;;;;3.50;99.90;;;;;;6166623;23;20248;-87
2023/04/06 07:18:48;;;;;;;;;;;3.40;99.90;;;;;;6190558;23;19927;-87
2023/04/06 07:21:13;;;;;;;;;;;3.50;99.90;;;;;;6165049;23;20399;-88
2023/04/06 07:23:39;;;;;;;;;;;3.60;99.90;;;;;;6165351;23;20017;-88
2023/04/06 07:26:05;;;;;;;;;;;3.70;99.90;;;;;;6190347;23;19920;-87
2023/04/06 07:28:31;;;;;;;;;;;5.10;99.90;;;;;;6190830;23;19947;-89
2023/04/06 07:30:56;;;;;;;;;;;4.00;99.90;;;;;;6140705;23;20373;-89
2023/04/06 07:33:22;;;;;;;;;;;4.10;99.90;;;;;;6165572;23;19920;-87
2023/04/06 07:35:47;;;;;;;;;;;4.20;99.90;;;;;;6165753;23;19920;-89
2023/04/06 07:38:13;;;;;;;;;;;4.30;99.90;;;;;;6191014;23;19943;-88
2023/04/06 07:40:39;;;;;;;;;;;4.40;99.90;;;;;;6190074;23;19978;-88
2023/04/06 07:43:05;;;;;;;;;;;4.50;99.90;;;;;;6165094;23;19928;-86
2023/04/06 07:45:31;;;;;;;;;;;4.60;99.90;;;;;;6189824;23;19920;-87
2023/04/06 07:47:59;;;;;;;;;;;4.80;99.90;;;;;;6190332;23;19920;-92
2023/04/06 07:50:25;;;;;;;;;;;4.90;99.90;;;;;;6141906;23;19920;-88
2023/04/06 07:52:50;;;;;;;;;;;5.00;99.90;;;;;;6140733;23;19920;-89
2023/04/06 07:55:18;;;;;;;;;;;5.10;99.90;;;;;;6141079;23;19920;-88
2023/04/06 07:57:44;;;;;;;;;;;7.80;99.90;;;;;;6165102;23;19919;-88
2023/04/06 08:00:10;;;;;;;;;;;5.40;99.90;;;;;;6189957;23;19936;-87
2023/04/06 08:02:35;;;;;;;;;;;5.50;99.90;;;;;;6190448;23;19919;-88
2023/04/06 08:05:03;;;;;;;;;;;5.60;99.90;;;;;;6189791;23;20352;-90
2023/04/06 08:07:29;;;;;;;;;;;5.70;99.90;;;;;;6164902;23;20045;-89
2023/04/06 08:09:55;;;;;;;;;;;5.80;99.90;;;;;;6165021;23;20025;-87
2023/04/06 08:12:21;;;;;;;;;;;5.90;99.90;;;;;;6165021;23;19926;-88
2023/04/06 08:14:50;;;;;;;;;;;6.00;99.90;;;;;;6140194;23;20279;-89
2023/04/06 08:17:15;;;;;;;;;;;5.90;99.90;;;;;;6164837;23;19924;-88
2023/04/06 08:19:42;;;;;;;;;;;6.20;99.90;;;;;;6165286;23;19943;-90
2023/04/06 08:22:08;;;;;;;;;;;6.30;99.90;;;;;;6189866;23;19928;-89
2023/04/06 08:24:41;;;;;;;;;;;6.40;99.90;;;;;;6164502;23;19924;-89
2023/04/06 08:27:07;;;;;;;;;;;6.40;99.90;;;;;;6167422;23;19924;-87
2023/04/06 08:29:33;;;;;;;;;;;6.60;99.90;;;;;;6164373;23;20322;-88
2023/04/06 08:31:58;;;;;;;;;;;6.70;99.90;;;;;;6189753;23;19989;-88
2023/04/06 08:34:27;;;;;;;;;;;6.80;99.90;;;;;;6140516;23;19920;-87
2023/04/06 08:36:52;;;;;;;;;;;6.90;99.90;;;;;;6189738;23;19970;-87
2023/04/06 08:39:24;;;;;;;;;;;7.00;99.90;;;;;;6165168;23;19923;-88
2023/04/06 08:41:52;;;;;;;;;;;7.10;99.90;;;;;;6166512;23;19966;-88
2023/04/06 08:44:18;;;;;;;;;;;7.20;99.90;;;;;;6164845;23;19927;-89
2023/04/06 08:46:43;;;;;;;;;;;7.40;99.90;;;;;;6165211;23;19919;-87
2023/04/06 08:49:15;;;;;;;;;;;7.50;99.90;;;;;;6189604;23;19991;-88
2023/04/06 08:51:41;;;;;;;;;;;7.40;99.90;;;;;;6188214;23;19927;-90
2023/04/06 08:54:07;;;;;;;;;;;7.70;99.90;;;;;;6189161;23;20299;-88
2023/04/06 08:56:33;;;;;;;;;;;7.90;99.90;;;;;;6189180;23;19990;-87
2023/04/06 08:58:59;;;;;;;;;;;7.90;99.90;;;;;;6189206;23;20236;-87
2023/04/06 09:01:26;;;;;;;;;;;8.10;99.90;;;;;;6164430;23;19920;-86
2023/04/06 09:03:54;;;;;;;;;;;8.20;98.10;;;;;;6164802;23;19973;-86
2023/04/06 09:06:20;;;;;;;;;;;8.30;99.80;;;;;;6189695;23;20385;-87
2023/04/06 09:08:46;;;;;;;;;;;8.40;99.70;;;;;;6139532;23;20006;-86
2023/04/06 09:11:12;;;;;;;;;;;8.60;99.90;;;;;;6189858;23;19970;-84
2023/04/06 09:13:44;;;;;;;;;;;8.70;95.40;;;;;;6189060;23;20271;-84
2023/04/06 09:16:11;;;;;;;;;;;10.50;95.60;;;;;;6164672;23;19973;-85
2023/04/06 09:18:36;;;;;;;;;;;9.10;97.40;;;;;;6189153;23;19920;-84
2023/04/06 09:21:06;;;;;;;;;;;9.20;97.60;;;;;;6163973;23;19920;-87
2023/04/06 09:23:32;;;;;;;;;;;9.40;93.60;;;;;;6189061;23;19920;-87
2023/04/06 09:26:13;;;;;;;;;;;9.50;94.50;;;;;;6164287;23;19924;-87
2023/04/06 09:28:46;;;;;;;;;;;9.70;92.70;;;;;;6189982;23;19920;-86
2023/04/06 09:31:12;;;;;;;;;;;9.80;92.50;;;;;;6189112;23;19962;-84
2023/04/06 09:33:39;;;;;;;;;;;9.90;92.60;;;;;;6189323;23;19924;-86
2023/04/06 09:36:06;;;;;;;;;;;10.00;93.20;;;;;;6164554;23;20062;-86
2023/04/06 09:38:31;;;;;;;;;;;10.10;94.40;;;;;;6189081;23;20255;-86
2023/04/06 09:40:57;;;;;;;;;;;10.20;92.00;;;;;;6164200;23;19920;-85
2023/04/06 09:43:29;;;;;;;;;;;10.20;90.70;;;;;;6188959;23;19927;-85
2023/04/06 09:46:00;;;;;;;;;;;10.20;91.80;;;;;;6189426;23;19966;-86
2023/04/06 09:48:26;;;;;;;;;;;10.30;93.80;;;;;;6189220;23;20314;-86
2023/04/06 09:50:54;;;;;;;;;;;10.40;92.70;;;;;;6164297;23;19928;-85
2023/04/06 09:53:20;;;;;;;;;;;10.50;92.30;;;;;;6190097;23;19920;-85
2023/04/06 09:55:46;;;;;;;;;;;10.50;92.90;;;;;;6190672;23;20354;-86
2023/04/06 09:58:19;;;;;;;;;;;10.60;91.60;;;;;;6191020;23;19928;-86
2023/04/06 10:00:52;;;;;;;;;;;10.50;91.70;;;;;;6190795;23;19926;-85
2023/04/06 10:03:40;;;;;;;;;;;10.50;87.40;;;;;;6166114;23;20002;-86
2023/04/06 10:06:09;;;;;;;;;;;10.50;89.10;;;;;;6151501;23;19927;-86
2023/04/06 10:08:40;;;;;;;;;;;10.50;89.70;;;;;;6166931;23;19920;-90
2023/04/06 10:11:08;;;;;;;;;;;10.60;90.30;;;;;;6191885;23;19943;-92
2023/04/06 10:13:34;;;;;;;;;;;10.70;90.40;;;;;;6166237;23;19940;-87
2023/04/06 10:16:01;;;;;;;;;;;10.70;89.80;;;;;;6191132;23;19920;-85
2023/04/06 10:18:27;;;;;;;;;;;10.80;90.20;;;;;;6191727;23;19920;-85
2023/04/06 10:21:09;;;;;;;;;;;11.00;89.10;;;;;;6190728;23;19966;-85
2023/04/06 10:23:44;;;;;;;;;;;11.10;83.50;;;;;;6165751;23;19919;-86
2023/04/06 10:26:16;;;;;;;;;;;11.10;83.70;;;;;;6190560;23;20314;-86
2023/04/06 10:28:42;;;;;;;;;;;11.10;84.10;;;;;;6190435;23;19962;-86
2023/04/06 10:31:08;;;;;;;;;;;11.20;89.30;;;;;;6166536;23;19970;-85
2023/04/06 10:33:33;;;;;;;;;;;11.00;81.20;;;;;;6166034;23;19924;-86
2023/04/06 10:36:11;;;;;;;;;;;11.20;86.70;;;;;;6190582;23;19998;-85
2023/04/06 10:38:38;;;;;;;;;;;11.20;84.00;;;;;;6190354;23;19920;-85
2023/04/06 10:41:05;;;;;;;;;;;11.20;86.10;;;;;;6166031;23;19920;-85
2023/04/06 10:43:33;;;;;;;;;;;11.30;86.40;;;;;;6190809;23;19950;-85
2023/04/06 10:46:00;;;;;;;;;;;11.40;87.00;;;;;;6190279;23;19927;-85
2023/04/06 10:48:36;;;;;;;;;;;11.60;88.10;;;;;;6190309;23;19991;-85
2023/04/06 10:51:03;;;;;;;;;;;11.70;88.90;;;;;;6190922;23;19970;-88
2023/04/06 10:53:32;;;;;;;;;;;11.80;87.20;;;;;;6152193;23;19924;-92
2023/04/06 10:55:57;;;;;;;;;;;12.00;88.70;;;;;;6168468;23;19920;-87
2023/04/06 10:58:26;;;;;;;;;;;12.10;85.30;;;;;;6165472;23;19974;-87
2023/04/06 11:01:03;;;;;;;;;;;;;;;;;;;;;
2023/04/06 11:03:29;;;;;;;;;;;12.50;87.60;;;;;;6191305;23;19931;-87
2023/04/06 11:05:55;;;;;;;;;;;12.50;86.60;;;;;;6164772;23;19951;-86
2023/04/06 11:08:30;;;;;;;;;;;12.90;88.00;;;;;;6190628;23;20254;-87
2023/04/06 11:11:06;;;;;;;;;;;11.00;82.70;;;;;;6190287;23;20345;-87
2023/04/06 11:13:44;;;;;;;;;;;12.50;81.30;;;;;;6165192;23;19924;-86
2023/04/06 11:16:13;;;;;;;;;;;12.50;83.00;;;;;;6190496;23;19999;-86
2023/04/06 11:18:46;;;;;;;;;;;12.40;79.00;;;;;;6190912;23;20292;-86
2023/04/06 11:21:12;;;;;;;;;;;12.40;81.40;;;;;;6166118;23;20218;-86
2023/04/06 11:23:37;;;;;;;;;;;12.50;84.20;;;;;;6190277;23;19927;-86
2023/04/06 11:26:03;;;;;;;;;;;12.50;83.30;;;;;;6191035;23;19955;-87
2023/04/06 11:28:29;;;;;;;;;;;12.50;79.60;;;;;;6166380;23;19959;-85
2023/04/06 11:30:55;;;;;;;;;;;12.60;82.80;;;;;;6165357;23;19924;-87
2023/04/06 11:33:22;;;;;;;;;;;12.70;83.10;;;;;;6166042;23;19920;-88
2023/04/06 11:53:04;;;;;;;;;;;;;;;;;;;;;
2023/04/06 11:55:48;;;;;;;;;;;12.90;80.90;;;;;;6013116;23;19955;-89
2023/04/06 11:58:41;;;;;;;;;;;13.20;81.10;;;;;;6072468;23;19922;-92
2023/04/06 12:01:31;;;;;;;;;;;14.90;80.70;;;;;;6161978;23;19947;-88
2023/04/06 12:03:58;;;;;;;;;;;13.10;85.10;;;;;;6170712;23;19927;-90
2023/04/06 12:06:27;;;;;;;;;;;13.10;82.00;;;;;;6191015;23;19927;-87
2023/04/06 12:08:55;;;;;;;;;;;13.10;83.60;;;;;;6189549;23;19923;-88
2023/04/06 12:11:27;;;;;;;;;;;11.10;86.10;;;;;;6167003;23;19943;-88
2023/04/06 12:14:05;;;;;;;;;;;14.70;82.40;;;;;;6166605;23;19995;-90
2023/04/06 12:16:35;;;;;;;;;;;11.50;82.60;;;;;;6165557;23;19920;-91
2023/04/06 12:19:11;;;;;;;;;;;13.50;83.60;;;;;;6165696;23;19927;-90
2023/04/06 12:21:57;;;;;;;;;;;13.30;82.20;;;;;;6141438;23;19920;-89
2023/04/06 12:24:52;;;;;;;;;;;13.30;77.50;;;;;;6189514;23;19927;-90
2023/04/06 12:27:37;;;;;;;;;;;12.30;76.40;;;;;;6154554;23;19920;-90
2023/04/06 12:30:39;;;;;;;;;;;;;;;;;;;;;
2023/04/06 12:33:48;;;;;;;;;;;13.00;76.50;;;;;;6179005;23;20258;-90
2023/04/06 12:36:15;;;;;;;;;;;13.10;76.90;;;;;;6184025;23;19927;-88
2023/04/06 12:39:03;;;;;;;;;;;13.00;77.00;;;;;;6189770;23;19990;-90
2023/04/06 12:41:42;;;;;;;;;;;;;;;;;;;;;
2023/04/06 12:44:38;;;;;;;;;;;13.30;81.00;;;;;;6167290;23;19920;-89
2023/04/06 12:48:01;;;;;;;;;;;;;;;;;;;;;
2023/04/06 12:50:31;;;;;;;;;;;11.80;75.40;;;;;;6166865;23;19920;-91
2023/04/06 12:53:07;;;;;;;;;;;12.90;79.40;;;;;;6155344;23;19927;-90
2023/04/06 12:55:58;;;;;;;;;;;13.20;76.20;;;;;;6165691;23;19919;-92
2023/04/06 12:58:57;;;;;;;;;;;;;;;;;;;;;
2023/04/06 13:05:18;;;;;;;;;;;;;;;;;;;;;
2023/04/06 13:11:41;;;;;;;;;;;;;;;;;;;;;
2023/04/06 13:24:55;;;;;;;;;;;13.00;77.40;;;;;;6187371;23;19954;-86
2023/04/06 13:27:33;;;;;;;;;;;;;;;;;;;;;
2023/04/06 13:30:02;;;;;;;;;;;12.80;75.90;;;;;;6190464;23;19924;-89
2023/04/06 13:32:32;;;;;;;;;;;13.20;78.70;;;;;;6165454;23;19927;-90
2023/04/06 13:35:02;;;;;;;;;;;13.10;78.10;;;;;;6164929;23;20299;-89
2023/04/06 13:37:37;;;;;;;;;;;13.30;78.10;;;;;;6164251;23;19920;-89
2023/04/06 13:40:14;;;;;;;;;;;;;;;;;;;;;
2023/04/06 13:42:41;;;;;;;;;;;13.20;78.20;;;;;;6166523;23;19920;-86
2023/04/06 13:45:10;;;;;;;;;;;13.30;80.20;;;;;;6164147;23;19959;-87
2023/04/06 13:47:38;;;;;;;;;;;13.30;78.00;;;;;;6189091;23;19926;-88
2023/04/06 13:50:07;;;;;;;;;;;13.40;80.10;;;;;;6164125;23;20250;-89
2023/04/06 13:52:38;;;;;;;;;;;13.30;79.00;;;;;;6163949;23;19920;-87
2023/04/06 13:55:07;;;;;;;;;;;13.40;79.00;;;;;;6165487;23;19927;-87
2023/04/06 13:57:45;;;;;;;;;;;;;;;;;;;;;
2023/04/06 14:00:12;;;;;;;;;;;13.60;80.50;;;;;;6188844;23;19920;-86
2023/04/06 14:02:46;;;;;;;;;;;13.30;80.20;;;;;;6189508;23;19971;-87
2023/04/06 14:05:14;;;;;;;;;;;13.60;82.30;;;;;;6190212;23;19920;-87
2023/04/06 14:07:40;;;;;;;;;;;13.30;85.00;;;;;;6164478;23;19924;-86
2023/04/06 14:10:13;;;;;;;;;;;13.40;84.10;;;;;;6189387;23;19927;-87
2023/04/06 14:12:44;;;;;;;;;;;13.30;85.60;;;;;;6189706;23;19924;-86
2023/04/06 14:15:11;;;;;;;;;;;13.40;83.80;;;;;;6188914;23;19927;-87
2023/04/06 14:17:39;;;;;;;;;;;13.50;84.00;;;;;;6189251;23;19960;-87
2023/04/06 14:20:13;;;;;;;;;;;12.60;86.80;;;;;;6188861;23;19919;-85
2023/04/06 14:22:40;;;;;;;;;;;13.60;80.90;;;;;;6166184;23;19924;-87
2023/04/06 14:25:06;;;;;;;;;;;13.70;82.70;;;;;;6189347;23;19962;-85
2023/04/06 14:27:32;;;;;;;;;;;13.70;81.80;;;;;;6189093;23;19928;-85
2023/04/06 14:29:57;;;;;;;;;;;12.40;81.90;;;;;;6163702;23;19974;-86
2023/04/06 14:32:24;;;;;;;;;;;13.50;82.40;;;;;;6164371;23;19942;-85
2023/04/06 14:34:57;;;;;;;;;;;13.40;84.70;;;;;;6164086;23;19927;-87
2023/04/06 14:37:26;;;;;;;;;;;13.20;85.00;;;;;;6165110;23;19920;-86
2023/04/06 14:39:51;;;;;;;;;;;13.60;88.40;;;;;;6165530;23;19920;-87
2023/04/06 14:42:17;;;;;;;;;;;13.20;88.10;;;;;;6166046;23;19942;-87
2023/04/06 14:44:45;;;;;;;;;;;13.40;90.20;;;;;;6165942;23;19919;-86
2023/04/06 14:47:34;;;;;;;;;;;13.20;89.20;;;;;;6191842;23;20318;-87
2023/04/06 14:50:03;;;;;;;;;;;13.00;87.50;;;;;;6170899;23;20295;-87
2023/04/06 14:52:29;;;;;;;;;;;12.90;90.50;;;;;;6166197;23;19924;-88
2023/04/06 14:54:57;;;;;;;;;;;13.40;90.40;;;;;;6142183;23;19927;-88
2023/04/06 14:57:23;;;;;;;;;;;13.00;91.00;;;;;;6190551;23;19920;-88
2023/04/06 14:59:49;;;;;;;;;;;12.80;91.80;;;;;;6165981;23;20002;-87
2023/04/06 15:02:19;;;;;;;;;;;12.40;93.00;;;;;;6166762;23;19939;-87
2023/04/06 15:04:45;;;;;;;;;;;12.40;92.30;;;;;;6141913;23;20211;-87
2023/04/06 15:07:13;;;;;;;;;;;12.70;92.40;;;;;;6166846;23;19920;-88
2023/04/06 15:09:39;;;;;;;;;;;12.40;91.90;;;;;;6166695;23;19920;-87
2023/04/06 15:12:05;;;;;;;;;;;12.20;92.90;;;;;;6190828;23;19927;-89
2023/04/06 15:14:35;;;;;;;;;;;12.20;92.50;;;;;;6190999;23;19927;-87
2023/04/06 15:17:01;;;;;;;;;;;12.70;92.20;;;;;;6191524;23;19924;-88